Ruidoso, NM

6:34 PM MDT on March 30, 2015 (GMT -0600)
The Beer Garden | | Change Station
CLOSE
Current Station
Personal Weather Station
Location: Ruidoso, NM
Elevation: 6745 ft
Nearby Weather Stations

Elev 6745 ft 33.34 °N, 105.67 °W | Updated 9 seconds ago

Mostly Cloudy
Mostly Cloudy
63.7 °F
Feels Like 63.7 °F
N
2.9
Wind Variable Wind from South
Gusts 2.9 mph

Today
High -- | Low -- °F
--% Chance of Precip.
Yesterday
High -- | Low -- °F
Precip. -- in
6:53 AM 7:21 PM
Waxing Gibbous, 83% visible
Pressure 30.24 in
Visibility 10.0 miles
Clouds Scattered Clouds 10000 ft
Dew Point 26 °F
Humidity 24%
Rainfall 0.00 in
Snow Depth Not available.
UV 1 out of 12
Pollen 11.80 out of 12
Air Quality Not available.
Flu Activity Not available.
METAR KSRR 310015Z AUTO 29011G24KT 10SM SCT100 18/M04 A3024 RMK AO2

More Conditions Fewer Conditions

Pressure 30.24 in
Visibility 10.0 miles
Clouds Scattered Clouds 10000 ft
Dew Point 26 °F
Humidity 24%
Rainfall 0.00 in
Snow Depth Not available.
UV 1 out of 12
Pollen 11.80 out of 12
Air Quality Not available.
Flu Activity Not available.
METAR KSRR 310015Z AUTO 29011G24KT 10SM SCT100 18/M04 A3024 RMK AO2

More Conditions Fewer Conditions

Nowcast | as of 5:49 PM MDT on March 30, 2015

Isolated mainly dry showers and possibly a short lived thunderstorm will continue to move east over much of western and central New Mexico before sunset. Expect gusty and erratic wind gusts to around 45 mph with the activity but little to no rain. Favored areas include much of Catron...Socorro and Lincoln counties...including Fence Lake...Old Horse Springs...dusty...Bingham...Carrizozo...Corona and Jicarilla.

×

10-Day Weather Forecast

Almanac

Astronomy

Mar. 30, 2015 Rise Set
Actual Time
Civil Twilight
Nautical Twilight
Astronomical Twilight
Moon
Length of Visible Light
Length of Day
Tomorrow will be .
, % of the Moon is Illuminated

Today's Extremes

State Highs State Lows

Community

WunderPhotos

Upload Photos

1,809,628 photos uploaded!

WunderBlogs® & News

Nearby

Air Quality

  Air Quality AQ Index Pollutant
Not available.

Snow Depth

Station Depth Elevation

Earthquake Activity

City Distance Mag. Time & Date
Minimum magnitude displayed is 2.5.

Coastal Water Temperatures

Place Temperature

Stations

Nearby Weather Stations

Station Location Temp. Windchill Dew Point Humidity Wind Precip. Elev Updated Type